createdAt,value
2024-01-05T00:16:58.197Z,93.1
2024-01-05T00:36:58.581Z,93.1
2024-01-05T00:56:58.372Z,93.2
2024-01-05T01:43:51.126Z,93.7
2024-01-05T01:43:51.130Z,93.3
2024-01-05T01:56:58.352Z,93.7
2024-01-05T02:16:58.431Z,93.8
2024-01-05T02:36:58.459Z,93.9
2024-01-05T02:56:59.133Z,94.1
2024-01-05T03:16:58.613Z,94.1
2024-01-05T03:37:01.295Z,94.1
2024-01-05T03:56:58.782Z,94
2024-01-05T04:16:59.420Z,93.9
2024-01-05T04:36:58.840Z,94
2024-01-05T04:56:58.720Z,94
2024-01-05T05:16:58.852Z,93.3
2024-01-05T05:36:58.847Z,93.5
2024-01-05T05:56:58.824Z,93.8
2024-01-05T06:16:58.974Z,93.8
2024-01-05T06:36:58.970Z,93.9
2024-01-05T06:56:59.041Z,93.9
2024-01-05T07:16:59.072Z,94
2024-01-05T07:36:59.293Z,93.9
2024-01-05T07:56:59.405Z,94
2024-01-05T08:16:59.149Z,94
2024-01-05T08:36:59.422Z,93.6
2024-01-05T08:57:00.221Z,92.8
2024-01-05T09:16:59.359Z,92
2024-01-05T09:36:59.566Z,91.1
2024-01-05T09:57:01.055Z,89.2
2024-01-05T10:16:59.538Z,87.1
2024-01-05T10:36:59.622Z,87.3
2024-01-05T10:56:59.485Z,87.1
2024-01-05T11:16:59.530Z,86.1
2024-01-05T11:36:59.877Z,85.1
2024-01-05T11:56:59.633Z,84
2024-01-05T12:16:59.680Z,83.1
2024-01-05T12:36:59.806Z,82.5
2024-01-05T12:56:59.930Z,82.5
2024-01-05T13:16:59.874Z,83.2
2024-01-05T13:36:59.815Z,83.4
2024-01-05T13:57:00.173Z,82.4
2024-01-05T14:16:59.860Z,83.5
2024-01-05T14:37:00.038Z,84.6
2024-01-05T14:57:00.669Z,85.7
2024-01-05T15:17:00.007Z,86.4
2024-01-05T15:37:00.204Z,86.9
2024-01-05T15:57:00.236Z,87.6
2024-01-05T16:17:00.113Z,88.3
2024-01-05T16:37:00.448Z,88.7
2024-01-05T16:57:00.531Z,89.2
2024-01-05T17:17:00.344Z,89.2
2024-01-05T17:37:00.384Z,89
2024-01-05T17:57:00.343Z,89
2024-01-05T18:17:02.040Z,89.6
2024-01-05T18:37:00.447Z,89.8
2024-01-05T18:57:00.526Z,90.4
2024-01-05T19:17:00.599Z,91.5
2024-01-05T19:37:00.590Z,91.9
2024-01-05T19:57:00.706Z,92.4
2024-01-05T20:17:00.870Z,93.1
2024-01-05T20:37:00.785Z,93
2024-01-05T20:57:00.865Z,93.2
2024-01-05T21:17:00.804Z,93.5
2024-01-05T21:37:00.936Z,93.8
2024-01-05T21:57:01.148Z,94
2024-01-05T22:17:01.670Z,94.4
2024-01-05T22:37:01.864Z,94.5
2024-01-05T22:57:03.017Z,94.6
2024-01-05T23:17:01.216Z,94.6
2024-01-05T23:37:01.167Z,94.7
2024-01-05T23:57:01.294Z,94.8
